createdAt,value
2023-05-18T00:00:14.937Z,13.30
2023-05-18T00:05:13.974Z,13.30
2023-05-18T00:10:14.307Z,13.30
2023-05-18T00:15:12.768Z,13.20
2023-05-18T00:20:12.075Z,13.20
2023-05-18T00:25:10.231Z,13.20
2023-05-18T00:30:11.544Z,13.20
2023-05-18T00:35:10.513Z,13.20
2023-05-18T00:40:10.506Z,13.20
2023-05-18T00:45:11.713Z,13.00
2023-05-18T00:50:11.021Z,13.00
2023-05-18T00:55:12.768Z,13.00
2023-05-18T01:00:14.530Z,12.80
2023-05-18T01:05:13.968Z,12.90
2023-05-18T01:10:13.732Z,12.90
2023-05-18T01:15:17.150Z,13.00
2023-05-18T01:20:24.022Z,13.00
2023-05-18T01:25:34.372Z,13.00
2023-05-18T01:30:35.466Z,13.00
2023-05-18T01:35:33.889Z,12.90
2023-05-18T01:40:38.686Z,12.90
2023-05-18T01:45:41.394Z,12.90
2023-05-18T01:50:44.730Z,12.90
2023-05-18T01:55:44.798Z,12.90
2023-05-18T02:00:45.577Z,12.70
2023-05-18T02:05:44.260Z,12.50
2023-05-18T02:10:42.431Z,12.60
2023-05-18T02:15:41.382Z,12.60
2023-05-18T02:20:41.604Z,12.40
2023-05-18T02:25:40.242Z,12.40
2023-05-18T02:30:38.417Z,12.40
2023-05-18T02:35:37.376Z,12.40
2023-05-18T02:40:37.262Z,12.40
2023-05-18T02:45:35.494Z,12.50
2023-05-18T02:50:34.387Z,12.50
2023-05-18T02:55:33.262Z,12.60
2023-05-18T03:00:43.839Z,12.60
2023-05-18T03:05:43.883Z,12.60
2023-05-18T03:10:42.403Z,12.60
2023-05-18T03:15:42.578Z,12.60
2023-05-18T03:20:41.386Z,12.60
2023-05-18T03:25:39.921Z,12.60
2023-05-18T03:30:38.477Z,12.60
2023-05-18T03:35:40.022Z,12.60
2023-05-18T03:40:40.014Z,12.40
2023-05-18T03:45:38.753Z,12.50
2023-05-18T03:50:39.546Z,12.40
2023-05-18T03:55:38.589Z,12.40
2023-05-18T04:00:37.338Z,12.40
2023-05-18T04:05:35.774Z,12.50
2023-05-18T04:10:35.851Z,12.60
2023-05-18T04:15:34.900Z,12.60
2023-05-18T04:20:34.089Z,12.40
2023-05-18T04:25:33.228Z,12.40
2023-05-18T04:30:33.693Z,12.40
2023-05-18T04:35:32.898Z,12.50
2023-05-18T04:40:34.449Z,12.40
2023-05-18T04:45:35.600Z,12.50
2023-05-18T04:50:34.247Z,12.60
2023-05-18T04:55:33.924Z,12.70
2023-05-18T05:00:42.567Z,12.70
2023-05-18T05:05:42.539Z,12.70
2023-05-18T05:10:41.188Z,12.60
2023-05-18T05:15:39.729Z,12.60
2023-05-18T05:20:39.381Z,12.70
2023-05-18T05:25:37.872Z,12.80
2023-05-18T05:30:37.252Z,12.80
2023-05-18T05:35:35.909Z,12.80
2023-05-18T05:40:36.066Z,12.70
2023-05-18T05:45:35.855Z,12.70
2023-05-18T05:50:38.463Z,12.80
2023-05-18T05:55:41.667Z,12.80
2023-05-18T06:00:47.504Z,12.90
2023-05-18T06:05:46.815Z,13.00
2023-05-18T06:10:48.397Z,13.30
2023-05-18T06:15:48.456Z,13.40
2023-05-18T06:21:06.290Z,13.50
2023-05-18T06:26:06.562Z,13.60
2023-05-18T06:31:23.755Z,13.80
2023-05-18T06:36:27.275Z,13.80
2023-05-18T06:41:27.299Z,14.20
2023-05-18T06:46:26.634Z,14.40
2023-05-18T06:51:39.223Z,14.40
2023-05-18T06:56:39.694Z,14.40
2023-05-18T07:01:38.731Z,14.40
2023-05-18T07:06:38.014Z,14.60
2023-05-18T07:11:36.556Z,14.60
2023-05-18T07:16:36.894Z,14.70
2023-05-18T07:21:35.162Z,14.70
2023-05-18T07:26:34.158Z,15.00
2023-05-18T07:31:33.838Z,15.10
2023-05-18T07:36:33.791Z,15.00
2023-05-18T07:41:32.728Z,15.10
2023-05-18T07:46:31.839Z,15.20
2023-05-18T07:51:30.972Z,15.30
2023-05-18T07:56:30.952Z,15.30
2023-05-18T08:01:30.714Z,15.40
2023-05-18T08:06:29.205Z,15.40
2023-05-18T08:11:27.767Z,15.50
2023-05-18T08:16:27.872Z,15.60
2023-05-18T08:21:26.582Z,15.50
2023-05-18T08:26:27.689Z,15.70
2023-05-18T08:31:27.623Z,16.00
2023-05-18T08:36:26.154Z,16.30
2023-05-18T08:41:29.223Z,16.70
2023-05-18T08:46:34.805Z,16.70
2023-05-18T08:51:36.578Z,16.60
2023-05-18T08:56:35.787Z,16.50
2023-05-18T09:01:36.487Z,16.80
2023-05-18T09:06:36.187Z,17.30
2023-05-18T09:11:36.172Z,17.90
2023-05-18T09:16:35.865Z,18.00
2023-05-18T09:21:34.882Z,18.30
2023-05-18T09:26:33.409Z,18.90
2023-05-18T09:31:32.770Z,18.90
2023-05-18T09:36:34.870Z,18.70
2023-05-18T09:41:33.587Z,18.70
2023-05-18T09:46:33.815Z,19.30
2023-05-18T09:51:36.937Z,19.60
2023-05-18T09:56:37.542Z,20.10
2023-05-18T10:01:36.165Z,20.10
2023-05-18T10:06:36.152Z,20.50
2023-05-18T10:11:35.128Z,20.70
2023-05-18T10:16:34.084Z,20.80
2023-05-18T10:21:35.328Z,21.00
2023-05-18T10:26:39.285Z,21.00
2023-05-18T10:31:39.756Z,21.00
2023-05-18T10:36:39.683Z,20.90
2023-05-18T10:41:41.003Z,21.60
2023-05-18T10:46:40.204Z,21.70
2023-05-18T10:51:39.846Z,21.30
2023-05-18T10:56:41.523Z,21.50
2023-05-18T11:01:42.060Z,21.60
2023-05-18T11:06:41.815Z,21.60
2023-05-18T11:11:55.962Z,21.50
2023-05-18T11:16:55.069Z,21.50
2023-05-18T11:21:55.243Z,21.60
2023-05-18T11:26:57.121Z,21.90
2023-05-18T11:31:56.996Z,22.40
2023-05-18T11:36:57.736Z,22.50
2023-05-18T11:42:06.764Z,22.60
2023-05-18T11:47:08.832Z,22.60
2023-05-18T11:52:15.707Z,22.50
2023-05-18T11:57:18.654Z,22.60
2023-05-18T12:02:22.251Z,22.80
2023-05-18T12:07:22.092Z,23.00
2023-05-18T12:12:21.951Z,22.90
2023-05-18T12:17:20.649Z,22.90
2023-05-18T12:22:19.171Z,23.00
2023-05-18T12:27:18.662Z,23.20
2023-05-18T12:32:18.927Z,23.30
2023-05-18T12:37:17.442Z,23.30
2023-05-18T12:42:16.943Z,23.20
2023-05-18T12:47:17.407Z,23.10
2023-05-18T12:52:17.138Z,23.20
2023-05-18T12:57:16.802Z,23.40
2023-05-18T13:02:31.973Z,23.30
2023-05-18T13:07:30.772Z,23.40
2023-05-18T13:12:39.685Z,23.50
2023-05-18T13:17:39.428Z,23.60
2023-05-18T13:22:37.932Z,23.40
2023-05-18T13:27:36.446Z,23.20
2023-05-18T13:32:35.451Z,23.30
2023-05-18T13:37:35.764Z,23.30
2023-05-18T13:42:34.537Z,23.30
2023-05-18T13:47:33.056Z,23.30
2023-05-18T13:52:31.774Z,23.30
2023-05-18T13:57:32.487Z,23.50
2023-05-18T14:02:31.092Z,23.70
2023-05-18T14:07:29.660Z,23.70
2023-05-18T14:12:28.141Z,23.60
2023-05-18T14:17:30.014Z,23.60
2023-05-18T14:22:28.656Z,23.40
2023-05-18T14:27:27.223Z,23.20
2023-05-18T14:32:25.853Z,22.30
2023-05-18T14:37:25.969Z,22.40
2023-05-18T14:42:24.579Z,22.20
2023-05-18T14:47:23.104Z,22.00
2023-05-18T14:52:21.575Z,22.00
2023-05-18T14:57:21.578Z,22.20
2023-05-18T15:02:20.084Z,22.20
2023-05-18T15:07:18.845Z,22.30
2023-05-18T15:12:18.102Z,22.30
2023-05-18T15:17:18.308Z,22.30
2023-05-18T15:22:16.850Z,21.80
2023-05-18T15:27:15.396Z,21.40
2023-05-18T15:32:14.085Z,20.80
2023-05-18T15:37:14.239Z,20.80
2023-05-18T15:42:12.586Z,20.90
2023-05-18T15:47:11.523Z,20.60
2023-05-18T15:52:10.326Z,20.80
2023-05-18T15:57:10.228Z,20.90
2023-05-18T16:02:09.042Z,20.80
2023-05-18T16:07:07.647Z,20.50
2023-05-18T16:12:06.739Z,20.60
2023-05-18T16:17:06.916Z,20.70
2023-05-18T16:22:05.602Z,20.60
2023-05-18T16:27:04.152Z,20.30
2023-05-18T16:32:02.695Z,20.10
2023-05-18T16:37:02.679Z,19.80
2023-05-18T16:42:00.856Z,19.70
2023-05-18T16:46:59.726Z,19.70
2023-05-18T16:51:58.291Z,19.70
2023-05-18T16:56:58.188Z,19.80
2023-05-18T17:01:56.708Z,19.70
2023-05-18T17:06:55.274Z,19.60
2023-05-18T17:11:53.790Z,19.30
2023-05-18T17:16:54.502Z,19.20
2023-05-18T17:28:41.315Z,18.60
2023-05-18T17:33:42.105Z,18.30
2023-05-18T17:38:40.684Z,18.10
2023-05-18T17:43:38.861Z,17.90
2023-05-18T17:48:37.707Z,17.90
2023-05-18T17:53:42.176Z,17.80
2023-05-18T17:58:40.788Z,17.70
2023-05-18T18:03:39.673Z,17.60
2023-05-18T18:08:39.673Z,17.60
2023-05-18T18:13:38.547Z,17.50
2023-05-18T18:18:38.376Z,17.60
2023-05-18T18:23:40.317Z,17.40
2023-05-18T18:28:39.145Z,17.30
2023-05-18T18:33:37.866Z,17.00
2023-05-18T18:38:36.534Z,16.90
2023-05-18T18:43:39.060Z,16.70
2023-05-18T18:48:37.568Z,16.70
2023-05-18T18:53:35.792Z,16.60
2023-05-18T18:58:36.275Z,16.40
2023-05-18T19:03:35.562Z,16.20
2023-05-18T19:08:34.111Z,16.10
2023-05-18T19:13:32.620Z,16.00
2023-05-18T19:18:32.589Z,16.00
2023-05-18T19:23:31.275Z,15.90
2023-05-18T19:28:29.935Z,15.70
2023-05-18T19:33:28.441Z,15.60
2023-05-18T19:38:28.467Z,15.50
2023-05-18T19:43:27.011Z,15.40
2023-05-18T19:48:25.611Z,15.40
2023-05-18T19:53:24.363Z,15.60
2023-05-18T19:58:25.413Z,15.90
2023-05-18T20:03:23.999Z,15.90
2023-05-18T20:08:22.622Z,15.60
2023-05-18T20:13:21.127Z,15.40
2023-05-18T20:18:22.124Z,15.20
2023-05-18T20:23:20.297Z,15.10
2023-05-18T20:28:18.817Z,15.10
2023-05-18T20:33:18.009Z,15.10
2023-05-18T20:38:18.079Z,15.30
2023-05-18T20:43:17.800Z,15.40
2023-05-18T20:48:18.531Z,15.10
2023-05-18T20:53:18.629Z,15.10
2023-05-18T20:58:18.778Z,15.20
2023-05-18T21:03:18.344Z,15.20
2023-05-18T21:08:18.074Z,15.10
2023-05-18T21:13:16.835Z,15.10
2023-05-18T21:18:15.430Z,15.10
2023-05-18T21:23:13.930Z,14.90
2023-05-18T21:28:13.799Z,14.80
2023-05-18T21:33:12.400Z,14.80
2023-05-18T21:38:10.993Z,14.80
2023-05-18T21:43:09.779Z,14.50
2023-05-18T21:48:10.001Z,14.40
2023-05-18T21:53:08.463Z,14.40
2023-05-18T21:58:06.691Z,14.60
2023-05-18T22:03:05.081Z,14.60
2023-05-18T22:08:05.178Z,14.60
2023-05-18T22:13:03.365Z,14.40
2023-05-18T22:18:02.719Z,14.40
2023-05-18T22:23:01.628Z,14.40
2023-05-18T22:28:01.474Z,14.40
2023-05-18T22:32:59.967Z,14.40
2023-05-18T22:37:58.492Z,14.40
2023-05-18T22:42:57.592Z,14.30
2023-05-18T22:47:57.492Z,14.30
2023-05-18T22:52:56.472Z,14.30
2023-05-18T22:57:54.960Z,14.20
2023-05-18T23:02:54.134Z,14.10
2023-05-18T23:07:58.177Z,14.10
2023-05-18T23:12:58.777Z,14.10
2023-05-18T23:17:56.985Z,14.10
2023-05-18T23:22:56.884Z,14.00
2023-05-18T23:27:55.646Z,13.90
2023-05-18T23:32:55.042Z,13.90
2023-05-18T23:37:58.862Z,13.90
2023-05-18T23:42:58.238Z,13.80
2023-05-18T23:47:57.517Z,13.70
2023-05-18T23:53:03.405Z,13.70
2023-05-18T23:58:03.324Z,13.50
